createdAt,value
2022-08-14T00:01:58.095Z,68.92
2022-08-14T00:04:34.495Z,69.57
2022-08-14T00:07:06.091Z,69.64
2022-08-14T00:09:34.607Z,69.92
2022-08-14T00:12:24.046Z,69.91
2022-08-14T00:14:53.141Z,70.98
2022-08-14T00:17:22.895Z,70.21
2022-08-14T00:19:49.646Z,71.37
2022-08-14T00:22:44.497Z,71.93
2022-08-14T00:25:10.309Z,72.54
2022-08-14T00:27:38.064Z,72.61
2022-08-14T00:30:10.908Z,72.79
2022-08-14T00:32:53.008Z,72.95
2022-08-14T00:36:33.607Z,73.47
2022-08-14T00:38:10.781Z,73.15
2022-08-14T00:40:37.852Z,73.88
2022-08-14T00:43:06.033Z,73.65
2022-08-14T00:45:32.893Z,73.50
2022-08-14T00:48:00.021Z,73.44
2022-08-14T00:50:30.425Z,73.66
2022-08-14T00:53:00.289Z,73.55
2022-08-14T00:55:30.133Z,73.76
2022-08-14T00:58:18.046Z,73.75
2022-08-14T01:00:50.921Z,74.11
2022-08-14T01:03:20.307Z,74.26
2022-08-14T01:05:51.667Z,74.52
2022-08-14T01:08:51.475Z,74.79
2022-08-14T01:11:19.019Z,74.98
2022-08-14T01:13:55.754Z,75.18
2022-08-14T01:16:30.882Z,75.36
2022-08-14T01:19:19.608Z,75.68
2022-08-14T01:21:52.836Z,76.01
2022-08-14T01:24:28.833Z,75.66
2022-08-14T01:27:00.547Z,76.34
2022-08-14T01:29:40.400Z,76.07
2022-08-14T01:32:23.122Z,76.25
2022-08-14T01:35:20.999Z,76.52
2022-08-14T01:37:54.391Z,77.29
2022-08-14T01:40:36.414Z,77.02
2022-08-14T01:43:18.868Z,77.18
2022-08-14T01:46:05.712Z,76.99
2022-08-14T01:48:37.154Z,77.24
2022-08-14T01:51:19.028Z,77.37
2022-08-14T01:53:54.838Z,76.73
2022-08-14T01:56:44.571Z,76.75
2022-08-14T01:59:37.945Z,76.68
2022-08-14T02:02:19.724Z,77.60
2022-08-14T02:04:55.084Z,78.47
2022-08-14T02:07:44.811Z,78.52
2022-08-14T02:10:12.872Z,78.18
2022-08-14T02:12:42.313Z,78.11
2022-08-14T02:15:09.469Z,78.59
2022-08-14T02:17:36.383Z,78.18
2022-08-14T02:20:08.576Z,78.57
2022-08-14T02:22:35.503Z,78.61
2022-08-14T02:25:14.407Z,78.39
2022-08-14T02:28:24.818Z,78.78
2022-08-14T02:30:32.023Z,78.61
2022-08-14T02:32:58.870Z,78.81
2022-08-14T02:35:32.931Z,78.93
2022-08-14T02:38:00.987Z,79.47
2022-08-14T02:40:33.914Z,79.15
2022-08-14T02:43:05.225Z,79.61
2022-08-14T02:45:38.322Z,79.33
2022-08-14T02:49:01.830Z,79.37
2022-08-14T02:51:00.906Z,78.77
2022-08-14T02:53:29.273Z,79.44
2022-08-14T02:56:03.048Z,79.37
2022-08-14T02:58:32.948Z,78.89
2022-08-14T03:01:01.188Z,78.72
2022-08-14T03:03:31.837Z,79.09
2022-08-14T03:06:02.643Z,78.82
2022-08-14T03:08:31.872Z,79.27
2022-08-14T03:10:59.883Z,79.01
2022-08-14T03:13:27.445Z,78.82
2022-08-14T03:15:58.056Z,79.39
2022-08-14T03:18:30.919Z,81.03
2022-08-14T03:21:07.780Z,80.79
2022-08-14T03:23:37.858Z,81.08
2022-08-14T03:26:07.150Z,80.84
2022-08-14T03:28:34.528Z,81.06
2022-08-14T03:31:04.386Z,81.12
2022-08-14T03:33:37.669Z,81.12
2022-08-14T03:37:39.353Z,81.28
2022-08-14T03:39:13.004Z,80.88
2022-08-14T03:41:45.415Z,80.62
2022-08-14T03:45:27.769Z,80.96
2022-08-14T03:46:58.581Z,81.91
2022-08-14T03:49:28.378Z,81.96
2022-08-14T03:51:57.573Z,82.17
2022-08-14T03:54:25.885Z,81.94
2022-08-14T03:56:54.608Z,81.85
2022-08-14T03:59:21.288Z,82.46
2022-08-14T04:01:57.932Z,82.28
2022-08-14T04:04:30.359Z,82.52
2022-08-14T04:06:58.789Z,82.82
2022-08-14T04:09:26.899Z,82.07
2022-08-14T04:11:54.217Z,82.63
2022-08-14T04:14:22.732Z,82.38
2022-08-14T04:16:50.813Z,82.12
2022-08-14T04:19:19.368Z,81.67
2022-08-14T04:22:02.232Z,81.64
2022-08-14T04:24:38.620Z,81.36
2022-08-14T04:27:11.562Z,81.73
2022-08-14T04:29:40.007Z,81.84
2022-08-14T04:33:00.794Z,81.21
2022-08-14T04:34:57.627Z,80.39
2022-08-14T04:37:43.574Z,80.75
2022-08-14T04:40:31.653Z,80.78
2022-08-14T04:43:17.604Z,80.81
2022-08-14T04:45:44.631Z,80.68
2022-08-14T04:48:38.781Z,81.05
2022-08-14T04:51:06.310Z,81.30
2022-08-14T04:53:36.211Z,80.46
2022-08-14T04:56:10.570Z,80.32
2022-08-14T04:58:58.820Z,81.24
2022-08-14T05:01:28.311Z,81.47
2022-08-14T05:03:55.989Z,81.24
2022-08-14T05:06:37.890Z,81.05
2022-08-14T05:09:07.403Z,81.31
2022-08-14T05:11:38.131Z,80.53
2022-08-14T05:14:34.642Z,80.81
2022-08-14T05:16:52.220Z,81.52
2022-08-14T05:19:26.866Z,81.25
2022-08-14T05:22:15.739Z,80.60
2022-08-14T05:24:51.367Z,80.32
2022-08-14T05:27:22.619Z,80.30
2022-08-14T05:29:53.250Z,79.92
2022-08-14T05:32:20.236Z,79.60
2022-08-14T05:34:47.046Z,79.45
2022-08-14T05:37:15.415Z,79.23
2022-08-14T05:39:42.933Z,80.08
2022-08-14T05:42:09.911Z,80.35
2022-08-14T05:44:36.874Z,79.82
2022-08-14T05:47:04.413Z,80.23
2022-08-14T05:49:33.177Z,81.37
2022-08-14T05:52:01.594Z,82.06
2022-08-14T05:54:30.707Z,81.59
2022-08-14T05:57:03.425Z,81.66
2022-08-14T05:59:36.509Z,81.96
2022-08-14T06:02:06.541Z,81.91
2022-08-14T06:04:33.072Z,82.06
2022-08-14T06:06:59.691Z,81.49
2022-08-14T06:09:26.522Z,81.33
2022-08-14T06:11:53.187Z,81.82
2022-08-14T06:14:24.081Z,81.92
2022-08-14T06:16:52.957Z,81.37
2022-08-14T06:19:20.512Z,81.01
2022-08-14T06:21:58.137Z,81.15
2022-08-14T06:24:26.237Z,81.32
2022-08-14T06:26:54.305Z,82.74
2022-08-14T06:29:32.391Z,82.87
2022-08-14T06:32:37.419Z,81.82
2022-08-14T06:35:03.291Z,81.52
2022-08-14T06:37:53.459Z,82.53
2022-08-14T06:40:29.075Z,83.25
2022-08-14T06:43:00.328Z,84.50
2022-08-14T06:45:30.244Z,84.44
2022-08-14T06:47:58.835Z,84.98
2022-08-14T06:50:28.727Z,85.52
2022-08-14T06:52:56.962Z,84.75
2022-08-14T06:55:27.977Z,85.43
2022-08-14T06:57:56.025Z,85.02
2022-08-14T07:00:27.394Z,84.52
2022-08-14T07:03:15.746Z,85.11
2022-08-14T07:05:58.092Z,84.76
2022-08-14T07:08:28.732Z,85.04
2022-08-14T07:11:01.564Z,84.93
2022-08-14T07:13:30.579Z,85.14
2022-08-14T07:15:58.719Z,84.96
2022-08-14T07:18:28.392Z,84.29
2022-08-14T07:20:56.514Z,84.63
2022-08-14T07:23:26.630Z,83.98
2022-08-14T07:25:56.631Z,83.79
2022-08-14T07:28:43.057Z,83.51
2022-08-14T07:31:12.113Z,82.78
2022-08-14T07:33:46.687Z,82.82
2022-08-14T07:36:27.958Z,82.77
2022-08-14T07:39:02.770Z,80.93
2022-08-14T07:41:31.229Z,78.67
2022-08-14T07:44:29.001Z,77.57
2022-08-14T07:46:49.598Z,76.71
2022-08-14T07:49:18.093Z,76.28
2022-08-14T07:51:45.315Z,75.84
2022-08-14T07:54:12.513Z,76.75
2022-08-14T07:56:47.007Z,77.25
2022-08-14T07:59:18.524Z,78.11
2022-08-14T08:01:48.099Z,77.87
2022-08-14T08:04:24.944Z,77.89
2022-08-14T08:06:54.129Z,77.48
2022-08-14T08:09:32.425Z,77.84
2022-08-14T08:12:04.672Z,77.54
2022-08-14T08:14:56.214Z,76.57
2022-08-14T08:17:23.614Z,76.47
2022-08-14T08:19:51.587Z,75.68
2022-08-14T08:22:18.621Z,75.90
2022-08-14T08:24:45.118Z,75.95
2022-08-14T08:27:21.292Z,76.43
2022-08-14T08:29:50.862Z,77.13
2022-08-14T08:32:18.309Z,76.23
2022-08-14T08:34:46.393Z,75.75
2022-08-14T08:37:14.539Z,75.51
2022-08-14T08:40:02.739Z,75.21
2022-08-14T08:42:31.412Z,74.27
2022-08-14T08:45:05.023Z,74.74
2022-08-14T08:47:41.179Z,73.96
2022-08-14T08:53:00.102Z,72.39
2022-08-14T08:55:37.036Z,72.07
2022-08-14T08:58:12.568Z,72.66
2022-08-14T09:00:48.807Z,71.49
2022-08-14T09:03:20.514Z,70.64
2022-08-14T09:05:56.203Z,69.78
2022-08-14T09:08:32.708Z,69.67
2022-08-14T09:11:19.534Z,68.68
2022-08-14T09:13:50.413Z,68.38
2022-08-14T09:16:21.210Z,68.14
2022-08-14T09:18:48.881Z,67.24
2022-08-14T09:21:16.371Z,66.15
2022-08-14T09:24:26.815Z,65.22
2022-08-14T09:26:30.188Z,64.60
2022-08-14T09:28:59.136Z,64.00
2022-08-14T09:31:28.767Z,63.05
2022-08-14T09:34:28.768Z,61.89
2022-08-14T09:37:20.005Z,60.79
2022-08-14T09:39:53.770Z,60.39
2022-08-14T09:42:34.037Z,59.75
2022-08-14T09:45:30.244Z,59.33
2022-08-14T09:47:57.565Z,58.66
2022-08-14T09:50:30.547Z,57.55
2022-08-14T09:53:04.484Z,56.21
2022-08-14T09:55:41.401Z,55.96
2022-08-14T09:58:15.024Z,53.13
2022-08-14T10:00:49.699Z,50.33
2022-08-14T10:03:33.982Z,49.36
2022-08-14T10:06:09.884Z,49.24
2022-08-14T10:09:00.405Z,48.84
2022-08-14T10:11:35.440Z,46.98
2022-08-14T10:14:21.104Z,47.19
2022-08-14T10:17:04.821Z,46.71
2022-08-14T10:19:35.279Z,47.31
2022-08-14T10:23:12.373Z,45.97
2022-08-14T10:24:52.331Z,45.27
2022-08-14T10:27:23.791Z,45.65
2022-08-14T10:30:00.931Z,44.37
2022-08-14T10:32:40.118Z,45.35
2022-08-14T10:35:16.759Z,43.85
2022-08-14T10:37:49.962Z,42.14
2022-08-14T10:40:44.035Z,42.08
2022-08-14T10:43:23.954Z,41.75
2022-08-14T10:46:21.627Z,41.54
2022-08-14T10:49:09.641Z,40.67
2022-08-14T10:51:41.561Z,39.88
2022-08-14T10:54:25.876Z,40.63
2022-08-14T10:57:18.642Z,39.95
2022-08-14T10:59:49.917Z,39.54
2022-08-14T11:02:45.136Z,39.72
2022-08-14T11:05:19.367Z,37.92
2022-08-14T11:07:57.079Z,37.84
2022-08-14T11:10:45.850Z,37.62
2022-08-14T11:13:25.654Z,37.61
2022-08-14T11:15:57.525Z,36.77
2022-08-14T11:18:32.540Z,37.24
2022-08-14T11:21:06.524Z,36.17
2022-08-14T11:23:38.591Z,36.69
2022-08-14T11:26:08.893Z,36.13
2022-08-14T11:28:46.975Z,36.01
2022-08-14T11:31:19.823Z,36.36
2022-08-14T11:33:57.823Z,36.08
2022-08-14T11:36:35.164Z,35.86
2022-08-14T11:39:34.521Z,35.33
2022-08-14T11:42:58.142Z,34.01
2022-08-14T11:45:00.185Z,33.46
2022-08-14T11:47:27.393Z,33.61
2022-08-14T11:50:13.301Z,33.20
2022-08-14T11:52:40.639Z,33.62
2022-08-14T11:55:12.838Z,33.27
2022-08-14T11:57:41.315Z,30.13
2022-08-14T12:00:14.756Z,30.55
2022-08-14T12:03:02.747Z,30.78
2022-08-14T12:05:39.830Z,29.40
2022-08-14T12:08:11.168Z,28.70
2022-08-14T12:10:43.303Z,28.24
2022-08-14T12:13:20.786Z,28.88
2022-08-14T12:16:06.598Z,29.16
2022-08-14T12:18:48.398Z,28.50
2022-08-14T12:21:19.618Z,28.81
2022-08-14T12:24:08.417Z,28.49
2022-08-14T12:26:40.998Z,27.45
2022-08-14T12:29:11.386Z,27.66
2022-08-14T12:31:44.707Z,26.88
2022-08-14T12:34:19.325Z,26.76
2022-08-14T12:36:48.625Z,26.93
2022-08-14T12:39:23.830Z,27.31
2022-08-14T12:41:57.283Z,26.88
2022-08-14T12:44:50.341Z,27.09
2022-08-14T12:47:17.821Z,26.41
2022-08-14T12:49:52.595Z,27.47
2022-08-14T12:52:42.971Z,27.35
2022-08-14T12:55:20.813Z,26.56
2022-08-14T12:57:53.374Z,26.55
2022-08-14T13:00:25.455Z,26.17
2022-08-14T13:02:55.818Z,25.81
2022-08-14T13:05:31.725Z,25.30
2022-08-14T13:08:03.691Z,25.69
2022-08-14T13:10:47.444Z,25.37
2022-08-14T13:13:19.684Z,26.19
2022-08-14T13:15:48.256Z,25.36
2022-08-14T13:18:26.415Z,25.38
2022-08-14T13:20:59.611Z,24.41
2022-08-14T13:23:32.974Z,25.08
2022-08-14T13:26:03.010Z,24.78
2022-08-14T13:28:32.728Z,24.44
2022-08-14T13:31:03.780Z,24.75
2022-08-14T13:33:40.601Z,24.58
2022-08-14T13:36:09.109Z,24.24
2022-08-14T13:38:35.632Z,24.02
2022-08-14T13:41:03.007Z,23.75
2022-08-14T13:43:36.553Z,23.62
2022-08-14T13:46:03.971Z,23.58
2022-08-14T13:48:36.377Z,24.19
2022-08-14T13:51:07.812Z,24.47
2022-08-14T13:54:07.028Z,23.88
2022-08-14T13:56:37.198Z,23.66
2022-08-14T13:59:04.916Z,23.48
2022-08-14T14:01:43.812Z,24.16
2022-08-14T14:04:18.965Z,23.72
2022-08-14T14:06:49.444Z,24.15
2022-08-14T14:09:22.715Z,23.84
2022-08-14T14:11:52.985Z,24.15
2022-08-14T14:14:44.618Z,23.73
2022-08-14T14:17:11.792Z,23.81
2022-08-14T14:19:41.301Z,24.29
2022-08-14T14:22:09.831Z,24.30
2022-08-14T14:24:36.689Z,24.32
2022-08-14T14:27:30.130Z,23.23
2022-08-14T14:29:55.616Z,22.83
2022-08-14T14:32:31.974Z,23.80
2022-08-14T14:35:03.752Z,24.18
2022-08-14T14:37:30.883Z,24.25
2022-08-14T14:40:53.539Z,23.44
2022-08-14T14:42:51.857Z,23.58
2022-08-14T14:45:22.169Z,23.67
2022-08-14T14:47:59.105Z,24.78
2022-08-14T14:50:26.527Z,25.49
2022-08-14T14:52:54.067Z,25.63
2022-08-14T14:56:48.025Z,25.50
2022-08-14T14:58:31.857Z,26.01
2022-08-14T15:01:01.891Z,25.73
2022-08-14T15:03:29.652Z,27.82
2022-08-14T15:05:57.368Z,26.84
2022-08-14T15:08:26.452Z,25.94
2022-08-14T15:11:13.475Z,26.33
2022-08-14T15:13:43.001Z,26.28
2022-08-14T15:16:10.042Z,27.34
2022-08-14T15:18:40.091Z,27.20
2022-08-14T15:21:14.327Z,26.84
2022-08-14T15:23:44.509Z,26.96
2022-08-14T15:26:23.475Z,26.66
2022-08-14T15:29:02.723Z,27.20
2022-08-14T15:31:31.492Z,27.87
2022-08-14T15:34:44.380Z,26.77
2022-08-14T15:37:05.669Z,26.00
2022-08-14T15:39:38.419Z,23.94
2022-08-14T15:42:14.468Z,23.49
2022-08-14T15:44:50.759Z,22.98
2022-08-14T15:47:28.449Z,23.51
2022-08-14T15:49:58.386Z,22.83
2022-08-14T15:52:32.802Z,22.31
2022-08-14T15:55:14.433Z,22.18
2022-08-14T15:58:02.273Z,21.94
2022-08-14T16:00:50.053Z,22.02
2022-08-14T16:03:27.705Z,22.60
2022-08-14T16:06:10.621Z,21.90
2022-08-14T16:08:38.346Z,22.79
2022-08-14T16:11:08.341Z,24.37
2022-08-14T16:13:44.585Z,24.11
2022-08-14T16:16:47.544Z,25.93
2022-08-14T16:19:18.136Z,26.35
2022-08-14T16:21:58.412Z,24.69
2022-08-14T16:24:33.260Z,23.53
2022-08-14T16:27:01.371Z,22.46
2022-08-14T16:29:31.088Z,22.82
2022-08-14T16:32:01.717Z,22.85
2022-08-14T16:34:54.909Z,22.91
2022-08-14T16:37:23.454Z,22.32
2022-08-14T16:39:59.346Z,22.73
2022-08-14T16:42:39.302Z,22.20
2022-08-14T16:45:17.050Z,22.64
2022-08-14T16:47:44.247Z,23.02
2022-08-14T16:50:15.252Z,23.56
2022-08-14T16:53:02.092Z,25.67
2022-08-14T16:55:34.164Z,25.58
2022-08-14T16:58:22.029Z,24.88
2022-08-14T17:01:22.538Z,24.41
2022-08-14T17:04:25.124Z,25.64
2022-08-14T17:06:54.980Z,26.27
2022-08-14T17:09:43.151Z,25.72
2022-08-14T17:12:28.976Z,26.17
2022-08-14T17:15:09.946Z,26.92
2022-08-14T17:17:40.160Z,26.90
2022-08-14T17:20:53.568Z,27.47
2022-08-14T17:23:02.953Z,27.66
2022-08-14T17:25:38.423Z,27.88
2022-08-14T17:31:02.419Z,28.33
2022-08-14T17:33:40.657Z,27.22
2022-08-14T17:36:10.993Z,28.44
2022-08-14T17:39:05.370Z,28.53
2022-08-14T17:41:38.761Z,28.48
2022-08-14T17:44:13.406Z,28.52
2022-08-14T17:46:55.238Z,28.21
2022-08-14T17:49:31.923Z,28.24
2022-08-14T17:52:16.726Z,28.13
2022-08-14T17:54:52.675Z,28.63
2022-08-14T17:57:28.600Z,28.46
2022-08-14T17:59:56.390Z,29.30
2022-08-14T18:02:31.512Z,29.31
2022-08-14T18:05:02.995Z,29.66
2022-08-14T18:07:59.589Z,29.43
2022-08-14T18:10:52.009Z,29.95
2022-08-14T18:13:07.986Z,30.05
2022-08-14T18:15:41.312Z,30.06
2022-08-14T18:18:11.278Z,30.08
2022-08-14T18:21:42.678Z,30.47
2022-08-14T18:23:26.790Z,31.16
2022-08-14T18:25:56.924Z,31.22
2022-08-14T18:28:49.014Z,31.20
2022-08-14T18:31:20.126Z,31.35
2022-08-14T18:33:57.169Z,31.39
2022-08-14T18:37:16.706Z,31.54
2022-08-14T18:40:03.556Z,31.57
2022-08-14T18:42:33.358Z,31.99
2022-08-14T18:45:01.793Z,31.93
2022-08-14T18:48:03.314Z,31.96
2022-08-14T18:50:27.040Z,32.01
2022-08-14T18:53:06.888Z,32.27
2022-08-14T18:55:33.519Z,32.33
2022-08-14T18:58:00.870Z,32.63
2022-08-14T19:00:33.105Z,32.55
2022-08-14T19:03:05.042Z,32.89
2022-08-14T19:05:37.749Z,32.57
2022-08-14T19:08:24.896Z,32.82
2022-08-14T19:11:06.054Z,33.02
2022-08-14T19:13:44.431Z,32.77
2022-08-14T19:16:22.986Z,33.24
2022-08-14T19:18:52.227Z,33.14
2022-08-14T19:21:29.878Z,33.28
2022-08-14T19:24:27.310Z,32.78
2022-08-14T19:27:24.210Z,33.21
2022-08-14T19:30:19.647Z,33.31
2022-08-14T19:32:50.983Z,33.30
2022-08-14T19:35:19.723Z,33.34
2022-08-14T19:37:54.087Z,33.74
2022-08-14T19:40:42.708Z,33.59
2022-08-14T19:43:22.573Z,33.78
2022-08-14T19:46:37.870Z,34.38
2022-08-14T19:48:59.544Z,34.64
2022-08-14T19:51:32.739Z,34.62
2022-08-14T19:54:13.299Z,35.14
2022-08-14T19:56:46.014Z,34.94
2022-08-14T19:59:18.504Z,35.34
2022-08-14T20:01:49.494Z,35.72
2022-08-14T20:04:45.100Z,36.19
2022-08-14T20:07:09.290Z,36.60
2022-08-14T20:11:03.749Z,36.63
2022-08-14T20:12:36.372Z,36.87
2022-08-14T20:15:18.191Z,36.73
2022-08-14T20:17:54.260Z,37.07
2022-08-14T20:20:30.755Z,36.78
2022-08-14T20:23:11.243Z,37.06
2022-08-14T20:25:45.428Z,37.06
2022-08-14T20:28:31.965Z,37.09
2022-08-14T20:31:19.366Z,37.20
2022-08-14T20:34:07.907Z,37.06
2022-08-14T20:36:46.394Z,37.71
2022-08-14T20:39:15.480Z,37.86
2022-08-14T20:41:49.845Z,37.38
2022-08-14T20:44:40.687Z,37.55
2022-08-14T20:47:08.046Z,37.73
2022-08-14T20:49:36.394Z,37.53
2022-08-14T20:52:19.931Z,38.16
2022-08-14T20:54:50.650Z,37.99
2022-08-14T20:57:18.794Z,37.96
2022-08-14T20:59:53.390Z,38.61
2022-08-14T21:02:30.716Z,38.49
2022-08-14T21:05:16.099Z,38.23
2022-08-14T21:07:44.536Z,37.94
2022-08-14T21:10:35.280Z,38.18
2022-08-14T21:13:14.443Z,38.37
2022-08-14T21:15:57.782Z,38.61
2022-08-14T21:18:32.602Z,38.07
2022-08-14T21:21:07.474Z,38.26
2022-08-14T21:23:54.267Z,38.70
2022-08-14T21:26:50.593Z,38.35
2022-08-14T21:29:19.406Z,38.04
2022-08-14T21:31:55.749Z,38.43
2022-08-14T21:34:31.079Z,38.68
2022-08-14T21:37:07.827Z,38.47
2022-08-14T21:39:36.153Z,38.39
2022-08-14T21:42:05.721Z,38.37
2022-08-14T21:44:42.740Z,38.72
2022-08-14T21:47:12.574Z,39.25
2022-08-14T21:49:40.126Z,38.85
2022-08-14T21:52:51.863Z,39.02
2022-08-14T21:55:00.623Z,39.53
2022-08-14T21:57:53.531Z,39.85
2022-08-14T22:00:35.009Z,39.93
2022-08-14T22:03:10.081Z,39.64
2022-08-14T22:05:39.668Z,39.77
2022-08-14T22:08:07.478Z,39.67
2022-08-14T22:10:42.499Z,39.84
2022-08-14T22:13:12.314Z,40.15
2022-08-14T22:15:43.805Z,40.58
2022-08-14T22:18:20.354Z,40.37
2022-08-14T22:20:53.682Z,40.45
2022-08-14T22:23:23.067Z,40.61
2022-08-14T22:25:50.372Z,40.52
2022-08-14T22:28:25.327Z,41.01
2022-08-14T22:30:55.300Z,41.37
2022-08-14T22:33:30.893Z,41.56
2022-08-14T22:35:59.590Z,42.18
2022-08-14T22:38:35.517Z,42.69
2022-08-14T22:41:25.808Z,42.79
2022-08-14T22:43:56.586Z,43.22
2022-08-14T22:46:26.054Z,42.58
2022-08-14T22:48:53.802Z,43.33
2022-08-14T22:51:22.858Z,43.48
2022-08-14T22:53:52.486Z,43.89
2022-08-14T22:56:22.260Z,43.60
2022-08-14T22:58:57.896Z,43.65
2022-08-14T23:01:57.223Z,44.02
2022-08-14T23:04:35.859Z,44.33
2022-08-14T23:07:22.967Z,44.22
2022-08-14T23:09:57.487Z,44.74
2022-08-14T23:12:30.535Z,44.92
2022-08-14T23:14:59.994Z,44.95
2022-08-14T23:17:28.178Z,44.51
2022-08-14T23:20:18.749Z,45.35
2022-08-14T23:22:48.701Z,44.89
2022-08-14T23:25:32.427Z,45.71
2022-08-14T23:28:07.002Z,45.64
2022-08-14T23:30:55.363Z,45.86
2022-08-14T23:33:22.106Z,45.96
2022-08-14T23:35:59.118Z,45.97
2022-08-14T23:38:30.592Z,46.74
2022-08-14T23:41:00.856Z,46.45
2022-08-14T23:43:31.038Z,46.67
2022-08-14T23:45:58.949Z,46.68
2022-08-14T23:48:28.154Z,46.65
2022-08-14T23:50:55.775Z,47.00
2022-08-14T23:53:47.235Z,46.95
2022-08-14T23:56:16.562Z,47.57
2022-08-14T23:58:49.230Z,47.81
